createdAt,value
2023-02-18T00:00:20.365Z,1.10
2023-02-18T00:03:08.955Z,1.75
2023-02-18T00:05:38.207Z,1.25
2023-02-18T00:08:06.791Z,1.45
2023-02-18T00:10:35.519Z,1.52
2023-02-18T00:13:03.800Z,0.93
2023-02-18T00:15:32.432Z,1.20
2023-02-18T00:18:00.873Z,1.20
2023-02-18T00:20:29.852Z,1.63
2023-02-18T00:22:58.652Z,1.83
2023-02-18T00:25:27.449Z,2.13
2023-02-18T00:27:55.712Z,0.90
2023-02-18T00:30:24.828Z,1.30
2023-02-18T00:32:53.509Z,1.98
2023-02-18T00:35:22.297Z,1.25
2023-02-18T00:37:53.561Z,1.50
2023-02-18T00:40:22.369Z,1.55
2023-02-18T00:42:50.799Z,1.40
2023-02-18T00:45:19.765Z,1.67
2023-02-18T00:47:48.773Z,1.60
2023-02-18T00:50:18.845Z,1.55
2023-02-18T00:52:47.282Z,0.90
2023-02-18T00:55:16.153Z,1.38
2023-02-18T00:57:44.365Z,1.25
2023-02-18T01:00:13.590Z,1.10
2023-02-18T01:02:41.981Z,1.60
2023-02-18T01:05:11.223Z,1.73
2023-02-18T01:07:39.613Z,1.67
2023-02-18T01:10:08.710Z,1.50
2023-02-18T01:12:37.727Z,1.55
2023-02-18T01:15:07.937Z,1.42
2023-02-18T01:17:36.319Z,1.25
2023-02-18T01:20:08.159Z,1.38
2023-02-18T01:22:37.360Z,1.30
2023-02-18T01:25:11.208Z,1.05
2023-02-18T01:27:41.424Z,2.05
2023-02-18T01:30:14.147Z,1.70
2023-02-18T01:32:42.983Z,1.40
2023-02-18T01:35:14.733Z,1.15
2023-02-18T01:37:43.408Z,1.67
2023-02-18T01:40:22.092Z,1.30
2023-02-18T01:42:50.837Z,1.48
2023-02-18T01:45:35.228Z,1.20
2023-02-18T01:48:09.594Z,1.20
2023-02-18T01:50:43.807Z,1.20
2023-02-18T01:53:17.011Z,2.00
2023-02-18T01:55:48.016Z,1.02
2023-02-18T01:58:17.965Z,1.85
2023-02-18T02:00:47.614Z,0.90
2023-02-18T02:03:16.343Z,1.42
2023-02-18T02:05:45.713Z,1.67
2023-02-18T02:08:17.573Z,2.00
2023-02-18T02:10:52.288Z,1.58
2023-02-18T02:13:43.207Z,1.40
2023-02-18T02:16:25.934Z,1.17
2023-02-18T02:19:10.350Z,1.33
2023-02-18T02:22:01.960Z,1.98
2023-02-18T02:24:41.979Z,1.40
2023-02-18T02:27:48.945Z,1.15
2023-02-18T02:30:38.749Z,1.52
2023-02-18T02:33:16.185Z,1.25
2023-02-18T02:36:04.929Z,1.65
2023-02-18T02:39:03.718Z,1.58
2023-02-18T02:41:57.205Z,1.95
2023-02-18T02:44:39.541Z,1.05
2023-02-18T02:47:32.645Z,1.17
2023-02-18T02:50:10.820Z,1.30
2023-02-18T02:52:44.640Z,0.90
2023-02-18T02:55:14.191Z,1.42
2023-02-18T02:57:56.455Z,1.00
2023-02-18T03:00:48.809Z,1.15
2023-02-18T03:03:44.743Z,1.35
2023-02-18T03:07:29.135Z,1.05
2023-02-18T03:10:27.229Z,0.93
2023-02-18T03:13:20.354Z,1.10
2023-02-18T03:16:18.764Z,1.10
2023-02-18T03:18:53.091Z,1.10
2023-02-18T03:21:33.328Z,1.90
2023-02-18T03:24:24.425Z,0.95
2023-02-18T03:26:56.654Z,1.17
2023-02-18T03:29:27.363Z,1.27
2023-02-18T03:32:01.193Z,1.27
2023-02-18T03:34:34.294Z,1.25
2023-02-18T03:37:03.339Z,1.60
2023-02-18T03:39:35.417Z,1.08
2023-02-18T03:42:05.764Z,1.73
2023-02-18T03:44:37.270Z,1.15
2023-02-18T03:47:05.693Z,1.60
2023-02-18T03:49:35.977Z,1.13
2023-02-18T03:52:08.166Z,0.88
2023-02-18T03:54:36.828Z,0.93
2023-02-18T03:57:05.119Z,1.35
2023-02-18T03:59:33.800Z,1.50
2023-02-18T04:02:02.797Z,1.40
2023-02-18T04:04:31.477Z,0.98
2023-02-18T04:06:59.819Z,1.48
2023-02-18T04:09:28.383Z,1.58
2023-02-18T04:11:56.701Z,1.02
2023-02-18T04:14:25.461Z,1.70
2023-02-18T04:16:53.962Z,0.90
2023-02-18T04:19:22.635Z,1.70
2023-02-18T04:21:51.054Z,1.45
2023-02-18T04:24:19.877Z,1.40
2023-02-18T04:26:48.227Z,1.45
2023-02-18T04:29:17.045Z,1.17
2023-02-18T04:31:45.535Z,1.13
2023-02-18T04:34:14.302Z,1.25
2023-02-18T04:36:42.580Z,0.98
2023-02-18T04:39:11.146Z,1.45
2023-02-18T04:41:39.492Z,1.48
2023-02-18T04:44:08.162Z,0.90
2023-02-18T04:46:36.481Z,1.63
2023-02-18T04:49:05.037Z,0.98
2023-02-18T04:51:33.384Z,1.17
2023-02-18T04:54:02.042Z,1.40
2023-02-18T04:56:30.562Z,1.95
2023-02-18T04:58:59.150Z,1.65
2023-02-18T05:01:31.268Z,1.38
2023-02-18T05:03:59.921Z,0.80
2023-02-18T05:06:28.186Z,1.30
2023-02-18T05:08:56.902Z,1.33
2023-02-18T05:11:25.827Z,1.60
2023-02-18T05:13:54.520Z,0.90
2023-02-18T05:16:23.312Z,1.25
2023-02-18T05:18:52.018Z,1.15
2023-02-18T05:21:20.439Z,1.08
2023-02-18T05:23:49.067Z,1.27
2023-02-18T05:26:17.358Z,1.30
2023-02-18T05:28:45.879Z,1.67
2023-02-18T05:31:14.416Z,0.80
2023-02-18T05:33:43.101Z,1.20
2023-02-18T05:36:11.427Z,1.52
2023-02-18T05:38:40.340Z,1.23
2023-02-18T05:41:08.694Z,1.30
2023-02-18T05:43:57.541Z,0.77
2023-02-18T05:46:25.912Z,1.20
2023-02-18T05:48:54.619Z,0.80
2023-02-18T05:51:23.187Z,1.00
2023-02-18T05:53:51.847Z,1.60
2023-02-18T05:56:20.370Z,2.15
2023-02-18T05:58:49.199Z,1.38
2023-02-18T06:01:17.548Z,1.30
2023-02-18T06:03:46.398Z,1.67
2023-02-18T06:06:15.012Z,1.30
2023-02-18T06:08:45.059Z,1.70
2023-02-18T06:11:13.320Z,0.85
2023-02-18T06:13:42.059Z,1.20
2023-02-18T06:16:10.694Z,1.65
2023-02-18T06:18:40.230Z,0.77
2023-02-18T06:21:08.658Z,0.80
2023-02-18T06:23:37.197Z,1.55
2023-02-18T06:26:06.121Z,0.82
2023-02-18T06:28:34.964Z,2.50
2023-02-18T06:31:03.580Z,1.52
2023-02-18T06:33:32.324Z,1.23
2023-02-18T06:36:07.978Z,1.02
2023-02-18T06:38:37.441Z,1.33
2023-02-18T06:41:06.536Z,2.20
2023-02-18T06:43:35.773Z,1.00
2023-02-18T06:46:05.307Z,1.20
2023-02-18T06:48:34.468Z,1.60
2023-02-18T06:51:03.699Z,1.17
2023-02-18T06:53:32.366Z,1.02
2023-02-18T06:56:00.706Z,1.73
2023-02-18T06:58:29.693Z,0.90
2023-02-18T07:00:58.579Z,1.30
2023-02-18T07:03:27.657Z,1.50
2023-02-18T07:05:55.913Z,1.15
2023-02-18T07:08:24.502Z,1.63
2023-02-18T07:10:52.842Z,0.95
2023-02-18T07:13:21.460Z,1.52
2023-02-18T07:15:49.718Z,1.92
2023-02-18T07:18:18.562Z,1.42
2023-02-18T07:20:47.121Z,1.10
2023-02-18T07:23:15.677Z,2.10
2023-02-18T07:25:44.001Z,1.40
2023-02-18T07:28:12.628Z,2.22
2023-02-18T07:30:48.373Z,1.90
2023-02-18T07:33:17.193Z,1.85
2023-02-18T07:35:45.415Z,1.60
2023-02-18T07:38:13.975Z,1.95
2023-02-18T07:40:45.956Z,2.13
2023-02-18T07:43:14.597Z,2.03
2023-02-18T07:45:43.405Z,1.92
2023-02-18T07:48:12.638Z,1.67
2023-02-18T07:50:43.430Z,1.60
2023-02-18T07:53:17.584Z,1.90
2023-02-18T07:55:51.741Z,2.22
2023-02-18T07:58:24.751Z,1.85
2023-02-18T08:00:56.203Z,1.77
2023-02-18T08:03:31.508Z,3.83
2023-02-18T08:06:02.011Z,2.75
2023-02-18T08:08:32.356Z,1.95
2023-02-18T08:11:18.558Z,2.08
2023-02-18T08:13:49.200Z,2.05
2023-02-18T08:16:19.971Z,1.88
2023-02-18T08:18:50.323Z,2.00
2023-02-18T08:21:20.775Z,1.33
2023-02-18T08:23:49.807Z,2.33
2023-02-18T08:26:18.742Z,2.33
2023-02-18T08:28:48.469Z,1.83
2023-02-18T08:31:26.519Z,0.88
2023-02-18T08:36:42.854Z,2.30
2023-02-18T08:39:11.420Z,1.92
2023-02-18T08:41:39.842Z,2.42
2023-02-18T08:44:08.496Z,1.95
2023-02-18T08:46:37.085Z,1.83
2023-02-18T08:49:07.047Z,1.30
2023-02-18T08:51:35.858Z,1.67
2023-02-18T08:54:04.734Z,1.60
2023-02-18T08:56:34.049Z,2.05
2023-02-18T08:59:02.604Z,1.48
2023-02-18T09:01:33.552Z,1.67
2023-02-18T09:04:02.382Z,1.55
2023-02-18T09:06:32.533Z,1.60
2023-02-18T09:09:01.639Z,2.00
2023-02-18T09:11:30.307Z,1.23
2023-02-18T09:13:58.853Z,1.90
2023-02-18T09:16:28.491Z,2.05
2023-02-18T09:18:58.936Z,2.63
2023-02-18T09:21:27.777Z,2.45
2023-02-18T09:23:56.482Z,5.95
2023-02-18T09:26:28.186Z,1.63
2023-02-18T09:31:27.830Z,5.40
2023-02-18T09:34:01.743Z,4.40
2023-02-18T09:36:30.414Z,1.02
2023-02-18T09:39:02.010Z,2.88
2023-02-18T09:41:51.829Z,1.63
2023-02-18T09:44:49.314Z,2.35
2023-02-18T09:47:26.087Z,1.75
2023-02-18T09:50:03.910Z,2.38
2023-02-18T09:52:38.484Z,2.40
2023-02-18T09:55:20.909Z,2.35
2023-02-18T10:00:27.398Z,2.72
2023-02-18T10:02:59.114Z,2.40
2023-02-18T10:05:31.151Z,2.00
2023-02-18T10:08:05.487Z,2.33
2023-02-18T10:10:45.056Z,1.88
2023-02-18T10:13:21.436Z,3.42
2023-02-18T10:15:51.173Z,2.08
2023-02-18T10:18:56.710Z,1.88
2023-02-18T10:21:33.458Z,3.42
2023-02-18T10:24:48.128Z,2.67
2023-02-18T10:27:25.017Z,1.90
2023-02-18T10:29:56.002Z,3.22
2023-02-18T10:32:38.049Z,2.20
2023-02-18T10:35:46.228Z,2.53
2023-02-18T10:38:58.218Z,2.10
2023-02-18T10:41:41.907Z,1.63
2023-02-18T10:44:53.662Z,2.17
2023-02-18T10:47:50.325Z,5.95
2023-02-18T10:50:45.595Z,2.08
2023-02-18T10:53:34.644Z,2.80
2023-02-18T10:56:05.860Z,2.50
2023-02-18T10:58:37.239Z,2.67
2023-02-18T11:01:15.345Z,3.25
2023-02-18T11:04:41.307Z,4.75
2023-02-18T11:08:15.799Z,3.47
2023-02-18T11:10:51.987Z,3.72
2023-02-18T11:17:09.467Z,2.03
2023-02-18T11:20:07.846Z,2.20
2023-02-18T11:32:45.494Z,5.57
2023-02-18T11:38:49.598Z,6.50
2023-02-18T11:42:13.070Z,3.10
2023-02-18T11:48:50.214Z,1.65
2023-02-18T11:52:42.685Z,1.80
2023-02-18T11:56:05.695Z,1.73
2023-02-18T11:59:01.428Z,2.05
2023-02-18T12:02:46.055Z,3.20
2023-02-18T12:06:11.429Z,3.03
2023-02-18T12:10:43.776Z,2.40
2023-02-18T12:14:36.860Z,1.85
2023-02-18T12:17:59.334Z,3.28
2023-02-18T12:29:21.085Z,5.07
2023-02-18T12:33:19.974Z,4.65
2023-02-18T12:36:36.179Z,2.85
2023-02-18T12:39:29.132Z,5.40
2023-02-18T12:43:01.017Z,4.43
2023-02-18T12:46:42.211Z,2.10
2023-02-18T12:49:56.975Z,3.47
2023-02-18T12:53:25.300Z,2.20
2023-02-18T13:08:15.234Z,4.00
2023-02-18T13:11:09.540Z,3.20
2023-02-18T13:13:45.086Z,3.72
2023-02-18T13:16:20.069Z,3.40
2023-02-18T13:19:03.948Z,5.97
2023-02-18T13:21:33.000Z,4.93
2023-02-18T13:24:02.604Z,3.80
2023-02-18T13:26:33.998Z,2.40
2023-02-18T13:29:22.595Z,3.60
2023-02-18T13:32:27.185Z,4.50
2023-02-18T13:35:08.965Z,7.78
2023-02-18T13:37:50.431Z,6.07
2023-02-18T13:40:23.178Z,4.43
2023-02-18T13:42:52.836Z,4.65
2023-02-18T13:45:30.232Z,3.03
2023-02-18T13:48:00.516Z,4.55
2023-02-18T13:50:32.414Z,9.85
2023-02-18T13:53:04.119Z,5.15
2023-02-18T13:55:52.126Z,5.00
2023-02-18T13:58:25.864Z,11.57
2023-02-18T14:01:04.587Z,7.05
2023-02-18T14:03:45.391Z,3.15
2023-02-18T14:06:23.567Z,2.83
2023-02-18T14:09:19.365Z,4.43
2023-02-18T14:11:53.877Z,2.42
2023-02-18T14:14:25.817Z,4.95
2023-02-18T14:17:22.704Z,2.42
2023-02-18T14:20:20.474Z,3.00
2023-02-18T14:22:53.003Z,1.98
2023-02-18T14:25:21.595Z,1.90
2023-02-18T14:27:54.882Z,3.03
2023-02-18T14:30:23.611Z,2.03
2023-02-18T14:33:02.928Z,2.40
2023-02-18T14:35:53.788Z,2.53
2023-02-18T14:38:50.597Z,10.15
2023-02-18T14:41:34.686Z,4.75
2023-02-18T14:44:44.194Z,4.38
2023-02-18T14:47:21.214Z,6.07
2023-02-18T14:49:54.784Z,3.88
2023-02-18T14:52:38.112Z,5.25
2023-02-18T14:55:16.001Z,4.68
2023-02-18T14:57:48.811Z,4.28
2023-02-18T15:00:29.692Z,2.28
2023-02-18T15:02:59.995Z,2.65
2023-02-18T15:09:30.859Z,2.90
2023-02-18T15:12:05.818Z,3.25
2023-02-18T15:14:38.660Z,1.95
2023-02-18T15:17:14.202Z,1.23
2023-02-18T15:20:06.675Z,1.90
2023-02-18T15:22:36.409Z,4.18
2023-02-18T15:25:05.702Z,3.20
2023-02-18T15:27:39.910Z,3.72
2023-02-18T15:30:29.932Z,2.65
2023-02-18T15:33:01.020Z,3.90
2023-02-18T15:35:33.489Z,3.92
2023-02-18T15:38:02.426Z,5.13
2023-02-18T15:40:35.126Z,2.67
2023-02-18T15:43:10.006Z,4.13
2023-02-18T15:45:45.392Z,3.50
2023-02-18T15:48:36.717Z,6.50
2023-02-18T15:51:17.438Z,4.63
2023-02-18T15:53:50.763Z,4.45
2023-02-18T15:56:36.549Z,4.50
2023-02-18T15:59:30.633Z,3.72
2023-02-18T16:02:21.961Z,3.08
2023-02-18T16:04:59.835Z,2.33
2023-02-18T16:07:38.295Z,3.47
2023-02-18T16:10:36.431Z,4.38
2023-02-18T16:13:06.388Z,5.28
2023-02-18T16:15:40.902Z,5.40
2023-02-18T16:18:40.404Z,9.90
2023-02-18T16:21:19.019Z,5.70
2023-02-18T16:23:59.716Z,5.97
2023-02-18T16:26:33.031Z,6.57
2023-02-18T16:29:35.461Z,5.68
2023-02-18T16:32:04.242Z,5.18
2023-02-18T16:34:33.268Z,6.13
2023-02-18T16:37:21.102Z,6.47
2023-02-18T16:39:52.104Z,9.00
2023-02-18T16:42:20.383Z,6.15
2023-02-18T16:44:50.719Z,5.82
2023-02-18T16:47:20.192Z,4.20
2023-02-18T16:49:51.279Z,5.93
2023-02-18T16:52:20.162Z,3.25
2023-02-18T16:54:50.463Z,7.75
2023-02-18T16:57:18.708Z,4.90
2023-02-18T16:59:47.641Z,5.55
2023-02-18T17:02:22.380Z,4.55
2023-02-18T17:04:57.261Z,5.10
2023-02-18T17:07:25.709Z,5.35
2023-02-18T17:09:54.492Z,7.22
2023-02-18T17:12:23.406Z,4.28
2023-02-18T17:14:53.087Z,5.90
2023-02-18T17:17:22.840Z,5.82
2023-02-18T17:19:54.551Z,6.28
2023-02-18T17:22:22.935Z,6.78
2023-02-18T17:24:51.934Z,6.82
2023-02-18T17:27:20.385Z,3.15
2023-02-18T17:29:51.342Z,5.63
2023-02-18T17:32:19.938Z,11.05
2023-02-18T17:34:48.800Z,11.75
2023-02-18T17:37:17.431Z,6.60
2023-02-18T17:39:46.086Z,5.75
2023-02-18T17:42:15.304Z,6.72
2023-02-18T17:44:54.564Z,8.45
2023-02-18T17:47:31.104Z,6.82
2023-02-18T17:50:00.050Z,6.05
2023-02-18T17:52:32.797Z,7.15
2023-02-18T17:55:15.942Z,5.68
2023-02-18T17:57:47.030Z,8.15
2023-02-18T18:00:26.084Z,10.68
2023-02-18T18:02:54.930Z,13.05
2023-02-18T18:05:34.430Z,7.30
2023-02-18T18:08:04.329Z,12.23
2023-02-18T18:10:39.357Z,6.63
2023-02-18T18:13:15.209Z,12.93
2023-02-18T18:15:44.771Z,18.25
2023-02-18T18:18:14.769Z,14.95
2023-02-18T18:20:46.638Z,11.65
2023-02-18T18:23:17.648Z,11.98
2023-02-18T18:25:49.502Z,6.67
2023-02-18T18:28:20.080Z,9.77
2023-02-18T18:30:52.520Z,4.10
2023-02-18T18:33:28.116Z,7.45
2023-02-18T18:35:58.746Z,5.80
2023-02-18T18:38:28.886Z,9.65
2023-02-18T18:40:57.945Z,6.75
2023-02-18T18:43:32.203Z,5.47
2023-02-18T18:46:02.311Z,7.78
2023-02-18T18:48:30.812Z,9.55
2023-02-18T18:51:01.715Z,6.78
2023-02-18T18:53:33.820Z,7.38
2023-02-18T18:56:06.028Z,5.35
2023-02-18T18:58:36.730Z,4.18
2023-02-18T19:01:19.479Z,3.90
2023-02-18T19:03:48.702Z,6.32
2023-02-18T19:06:43.466Z,5.32
2023-02-18T19:26:32.132Z,6.80
2023-02-18T19:29:04.093Z,5.90
2023-02-18T19:31:33.673Z,5.35
2023-02-18T19:34:03.663Z,7.45
2023-02-18T19:36:32.345Z,4.80
2023-02-18T19:39:01.415Z,4.82
2023-02-18T19:41:29.734Z,7.80
2023-02-18T19:44:01.270Z,5.18
2023-02-18T19:46:30.001Z,7.40
2023-02-18T19:48:59.382Z,8.85
2023-02-18T19:51:28.262Z,7.35
2023-02-18T19:53:58.586Z,11.15
2023-02-18T19:56:26.919Z,5.15
2023-02-18T19:58:57.045Z,7.38
2023-02-18T20:01:25.512Z,2.97
2023-02-18T20:03:54.249Z,5.35
2023-02-18T20:06:23.131Z,5.38
2023-02-18T20:08:55.054Z,3.88
2023-02-18T20:11:23.591Z,3.80
2023-02-18T20:13:52.394Z,4.50
2023-02-18T20:16:20.804Z,4.95
2023-02-18T20:18:49.629Z,4.82
2023-02-18T20:21:18.436Z,3.78
2023-02-18T20:23:47.323Z,4.82
2023-02-18T20:26:15.701Z,4.70
2023-02-18T20:28:44.990Z,4.45
2023-02-18T20:31:15.216Z,4.00
2023-02-18T20:33:45.104Z,4.30
2023-02-18T20:36:14.776Z,3.00
2023-02-18T20:38:44.409Z,5.20
2023-02-18T20:41:14.936Z,3.35
2023-02-18T20:43:44.313Z,2.70
2023-02-18T20:46:15.567Z,2.17
2023-02-18T20:48:48.842Z,2.42
2023-02-18T20:51:20.914Z,2.20
2023-02-18T20:53:51.157Z,2.30
2023-02-18T20:56:21.420Z,2.60
2023-02-18T20:58:50.382Z,1.85
2023-02-18T21:01:33.626Z,2.30
2023-02-18T21:04:19.459Z,2.35
2023-02-18T21:06:50.861Z,2.67
2023-02-18T21:09:19.974Z,2.63
2023-02-18T21:11:49.073Z,1.70
2023-02-18T21:14:18.507Z,2.40
2023-02-18T21:16:56.043Z,2.15
2023-02-18T21:19:25.145Z,1.90
2023-02-18T21:21:54.390Z,2.28
2023-02-18T21:24:23.519Z,2.13
2023-02-18T21:27:00.857Z,2.72
2023-02-18T21:29:31.260Z,2.13
2023-02-18T21:31:59.878Z,1.85
2023-02-18T21:34:28.609Z,2.70
2023-02-18T21:36:57.067Z,1.88
2023-02-18T21:39:27.475Z,2.40
2023-02-18T21:41:57.338Z,2.45
2023-02-18T21:44:36.720Z,2.20
2023-02-18T21:47:11.288Z,2.45
2023-02-18T21:49:40.097Z,1.98
2023-02-18T21:52:08.843Z,2.50
2023-02-18T21:54:41.090Z,2.55
2023-02-18T21:57:15.822Z,1.85
2023-02-18T21:59:45.689Z,1.70
2023-02-18T22:02:31.717Z,2.63
2023-02-18T22:05:08.210Z,2.10
2023-02-18T22:07:38.062Z,4.82
2023-02-18T22:10:13.694Z,1.98
2023-02-18T22:12:52.434Z,2.63
2023-02-18T22:15:21.216Z,6.78
2023-02-18T22:17:50.693Z,2.13
2023-02-18T22:20:19.690Z,2.70
2023-02-18T22:22:48.678Z,2.80
2023-02-18T22:25:17.477Z,3.00
2023-02-18T22:27:48.802Z,6.05
2023-02-18T22:30:18.985Z,4.50
2023-02-18T22:32:47.368Z,4.93
2023-02-18T22:35:17.011Z,4.22
2023-02-18T22:37:45.946Z,4.63
2023-02-18T22:40:17.586Z,5.55
2023-02-18T22:42:45.985Z,4.20
2023-02-18T22:45:15.343Z,5.65
2023-02-18T22:47:43.912Z,4.78
2023-02-18T22:50:15.314Z,4.43
2023-02-18T22:52:43.801Z,4.32
2023-02-18T22:55:15.050Z,4.68
2023-02-18T22:57:43.426Z,3.17
2023-02-18T23:00:14.673Z,3.83
2023-02-18T23:02:43.080Z,5.53
2023-02-18T23:05:13.184Z,3.33
2023-02-18T23:07:41.942Z,2.00
2023-02-18T23:10:10.651Z,4.32
2023-02-18T23:12:38.938Z,3.90
2023-02-18T23:15:08.984Z,4.95
2023-02-18T23:17:37.336Z,4.50
2023-02-18T23:20:07.528Z,4.07
2023-02-18T23:22:36.719Z,4.20
2023-02-18T23:25:08.808Z,4.30
2023-02-18T23:27:37.229Z,4.30
2023-02-18T23:30:07.500Z,3.97
2023-02-18T23:32:36.919Z,4.15
2023-02-18T23:35:07.115Z,1.77
2023-02-18T23:37:53.886Z,5.00
2023-02-18T23:40:23.836Z,2.92
2023-02-18T23:42:56.191Z,4.25
2023-02-18T23:45:25.219Z,4.63
2023-02-18T23:47:53.567Z,4.93
2023-02-18T23:50:22.174Z,3.22
2023-02-18T23:52:50.513Z,3.67
2023-02-18T23:55:19.013Z,4.75
2023-02-18T23:57:47.640Z,3.92
